createdAt,value
2023-02-19T00:00:13.448Z,5.33
2023-02-19T00:02:39.952Z,5.60
2023-02-19T00:05:06.460Z,5.73
2023-02-19T00:07:32.907Z,5.53
2023-02-19T00:09:59.349Z,5.51
2023-02-19T00:12:26.448Z,5.56
2023-02-19T00:14:52.836Z,4.98
2023-02-19T00:17:19.322Z,4.25
2023-02-19T00:19:45.931Z,5.05
2023-02-19T00:22:13.944Z,5.80
2023-02-19T00:24:47.349Z,6.64
2023-02-19T00:27:15.847Z,6.32
2023-02-19T00:29:42.247Z,6.37
2023-02-19T00:32:08.670Z,6.60
2023-02-19T00:34:35.016Z,7.91
2023-02-19T00:37:02.433Z,12.31
2023-02-19T00:39:28.873Z,20.63
2023-02-19T00:41:55.268Z,7.85
2023-02-19T00:44:21.670Z,7.43
2023-02-19T00:46:48.075Z,11.52
2023-02-19T00:49:14.506Z,8.42
2023-02-19T00:51:40.912Z,7.53
2023-02-19T00:54:07.371Z,7.80
2023-02-19T00:56:33.910Z,7.84
2023-02-19T00:59:00.340Z,8.06
2023-02-19T01:01:26.769Z,8.10
2023-02-19T01:03:53.211Z,7.63
2023-02-19T01:06:19.733Z,7.31
2023-02-19T01:08:46.072Z,7.57
2023-02-19T01:11:12.812Z,7.22
2023-02-19T01:13:39.312Z,7.35
2023-02-19T01:16:05.771Z,9.35
2023-02-19T01:18:32.229Z,10.17
2023-02-19T01:20:58.600Z,7.24
2023-02-19T01:23:24.949Z,8.38
2023-02-19T01:25:51.275Z,8.37
2023-02-19T01:28:17.642Z,7.44
2023-02-19T01:30:43.999Z,6.46
2023-02-19T01:33:10.346Z,5.22
2023-02-19T01:35:36.763Z,4.34
2023-02-19T01:38:09.280Z,3.87
2023-02-19T01:43:15.959Z,3.56
2023-02-19T01:45:42.331Z,3.27
2023-02-19T01:48:08.665Z,3.75
2023-02-19T01:50:35.127Z,4.64
2023-02-19T01:53:01.548Z,5.59
2023-02-19T01:55:27.974Z,6.34
2023-02-19T01:57:54.346Z,7.45
2023-02-19T02:00:20.759Z,7.61
2023-02-19T02:02:47.156Z,7.65
2023-02-19T02:05:13.500Z,7.55
2023-02-19T02:07:39.850Z,7.04
2023-02-19T02:10:06.237Z,7.46
2023-02-19T02:15:12.940Z,7.56
2023-02-19T02:17:39.295Z,6.80
2023-02-19T02:20:07.855Z,6.94
2023-02-19T02:22:34.247Z,7.09
2023-02-19T02:25:00.629Z,6.78
2023-02-19T02:30:08.355Z,6.94
2023-02-19T02:32:34.756Z,6.99
2023-02-19T02:35:07.121Z,6.88
2023-02-19T02:37:33.689Z,8.77
2023-02-19T02:40:00.171Z,14.42
2023-02-19T02:42:26.651Z,10.43
2023-02-19T02:44:53.113Z,7.89
2023-02-19T02:47:19.547Z,16.63
2023-02-19T02:49:46.002Z,12.25
2023-02-19T02:52:12.486Z,7.37
2023-02-19T02:54:38.959Z,5.19
2023-02-19T02:57:05.443Z,5.18
2023-02-19T02:59:36.025Z,5.32
2023-02-19T03:04:42.765Z,7.02
2023-02-19T03:07:09.256Z,7.27
2023-02-19T03:09:35.655Z,6.65
2023-02-19T03:12:02.037Z,6.81
2023-02-19T03:14:28.440Z,6.95
2023-02-19T03:16:55.153Z,7.07
2023-02-19T03:19:21.669Z,7.15
2023-02-19T03:21:52.869Z,7.06
2023-02-19T03:24:19.215Z,6.97
2023-02-19T03:26:45.648Z,6.76
2023-02-19T03:31:52.563Z,6.68
2023-02-19T03:34:32.515Z,6.34
2023-02-19T03:37:02.682Z,6.67
2023-02-19T03:39:29.116Z,6.67
2023-02-19T03:41:55.688Z,6.59
2023-02-19T03:44:22.080Z,6.56
2023-02-19T03:46:49.159Z,6.76
2023-02-19T03:49:15.613Z,6.11
2023-02-19T03:51:42.073Z,5.92
2023-02-19T03:54:08.581Z,5.97
2023-02-19T03:56:35.095Z,5.94
2023-02-19T03:59:01.492Z,6.02
2023-02-19T04:01:27.900Z,5.90
2023-02-19T04:03:54.365Z,4.04
2023-02-19T04:06:20.728Z,4.81
2023-02-19T04:08:47.124Z,5.41
2023-02-19T04:11:13.490Z,5.94
2023-02-19T04:13:48.544Z,5.99
2023-02-19T04:16:16.170Z,5.89
2023-02-19T04:18:42.522Z,6.25
2023-02-19T04:21:09.112Z,6.56
2023-02-19T04:23:35.728Z,6.87
2023-02-19T04:26:02.140Z,7.02
2023-02-19T04:28:40.725Z,6.71
2023-02-19T04:31:07.122Z,6.62
2023-02-19T04:33:40.172Z,6.49
2023-02-19T04:36:06.619Z,6.82
2023-02-19T04:38:33.048Z,6.29
2023-02-19T04:40:59.545Z,5.30
2023-02-19T04:43:25.994Z,4.33
2023-02-19T04:45:52.442Z,4.55
2023-02-19T04:48:18.849Z,4.23
2023-02-19T04:50:45.306Z,4.19
2023-02-19T04:53:11.768Z,3.62
2023-02-19T04:55:38.216Z,4.00
2023-02-19T04:58:04.635Z,4.45
2023-02-19T05:00:39.490Z,4.58
2023-02-19T05:08:47.312Z,4.70
2023-02-19T05:11:13.865Z,4.23
2023-02-19T05:13:40.410Z,4.03
2023-02-19T05:16:06.877Z,3.03
2023-02-19T05:18:33.285Z,3.23
2023-02-19T05:20:59.722Z,2.91
2023-02-19T05:23:26.247Z,3.27
2023-02-19T05:25:52.694Z,3.66
2023-02-19T05:28:19.198Z,3.63
2023-02-19T05:30:45.626Z,3.76
2023-02-19T05:33:12.029Z,3.15
2023-02-19T05:35:38.457Z,3.10
2023-02-19T05:38:04.888Z,3.51
2023-02-19T05:40:31.304Z,3.31
2023-02-19T05:42:57.757Z,3.34
2023-02-19T05:45:24.102Z,3.18
2023-02-19T05:47:50.531Z,3.18
2023-02-19T05:50:16.937Z,3.22
2023-02-19T05:52:43.292Z,3.83
2023-02-19T05:55:09.655Z,4.54
2023-02-19T05:57:36.025Z,4.46
2023-02-19T06:00:02.434Z,4.39
2023-02-19T06:02:28.800Z,5.05
2023-02-19T06:04:55.287Z,5.21
2023-02-19T06:07:21.621Z,5.22
2023-02-19T06:09:47.990Z,5.00
2023-02-19T06:12:14.395Z,4.98
2023-02-19T06:14:40.758Z,4.93
2023-02-19T06:17:07.110Z,5.04
2023-02-19T06:19:36.044Z,5.11
2023-02-19T06:22:02.411Z,5.18
2023-02-19T06:24:28.781Z,6.18
2023-02-19T06:26:56.237Z,6.48
2023-02-19T06:29:22.753Z,5.96
2023-02-19T06:31:52.043Z,5.75
2023-02-19T06:34:18.529Z,5.63
2023-02-19T06:36:44.894Z,5.80
2023-02-19T06:41:51.583Z,5.73
2023-02-19T06:44:18.021Z,5.52
2023-02-19T06:46:44.439Z,6.17
2023-02-19T06:49:10.900Z,6.03
2023-02-19T06:51:37.451Z,5.37
2023-02-19T06:54:04.829Z,5.90
2023-02-19T06:56:44.836Z,5.78
2023-02-19T06:59:13.913Z,5.48
2023-02-19T07:01:40.270Z,5.69
2023-02-19T07:04:06.704Z,5.52
2023-02-19T07:06:33.055Z,5.34
2023-02-19T07:08:59.550Z,5.44
2023-02-19T07:11:25.932Z,5.35
2023-02-19T07:13:52.506Z,5.37
2023-02-19T07:16:18.900Z,5.47
2023-02-19T07:18:45.457Z,5.51
2023-02-19T07:21:12.042Z,5.66
2023-02-19T07:23:38.652Z,6.78
2023-02-19T07:26:05.440Z,6.49
2023-02-19T07:28:40.122Z,6.69
2023-02-19T07:31:07.192Z,6.63
2023-02-19T07:33:33.606Z,6.45
2023-02-19T07:36:00.107Z,6.36
2023-02-19T07:38:26.498Z,6.25
2023-02-19T07:40:52.929Z,5.96
2023-02-19T07:46:06.182Z,5.82
2023-02-19T07:48:32.586Z,6.18
2023-02-19T07:50:59.005Z,6.43
2023-02-19T07:53:25.423Z,5.95
2023-02-19T07:55:51.917Z,6.24
2023-02-19T07:58:18.349Z,5.93
2023-02-19T08:00:44.802Z,6.43
2023-02-19T08:03:11.308Z,6.43
2023-02-19T08:05:37.748Z,6.48
2023-02-19T08:08:04.159Z,6.38
2023-02-19T08:10:30.602Z,6.77
2023-02-19T08:12:57.131Z,6.64
2023-02-19T08:15:23.593Z,6.69
2023-02-19T08:17:50.030Z,6.64
2023-02-19T08:20:16.571Z,6.21
2023-02-19T08:22:42.967Z,6.59
2023-02-19T08:25:09.363Z,6.63
2023-02-19T08:27:35.863Z,7.89
2023-02-19T08:30:03.625Z,9.60
2023-02-19T08:32:30.116Z,7.74
2023-02-19T08:34:56.511Z,6.34
2023-02-19T08:37:22.948Z,6.61
2023-02-19T08:39:49.404Z,6.38
2023-02-19T08:42:15.960Z,7.91
2023-02-19T08:44:42.425Z,7.06
2023-02-19T08:47:08.883Z,6.82
2023-02-19T08:49:35.264Z,6.70
2023-02-19T08:52:01.662Z,6.25
2023-02-19T08:54:28.058Z,6.77
2023-02-19T08:56:57.440Z,7.76
2023-02-19T08:59:23.819Z,7.30
2023-02-19T09:01:50.290Z,6.65
2023-02-19T09:04:16.886Z,6.88
2023-02-19T09:06:50.754Z,6.60
2023-02-19T09:09:17.339Z,6.27
2023-02-19T09:11:46.879Z,6.41
2023-02-19T09:14:14.303Z,7.34
2023-02-19T09:16:40.665Z,7.05
2023-02-19T09:19:07.100Z,6.56
2023-02-19T09:21:33.502Z,6.75
2023-02-19T09:23:59.934Z,6.80
2023-02-19T09:26:26.416Z,7.34
2023-02-19T09:28:53.052Z,7.37
2023-02-19T09:31:19.599Z,7.44
2023-02-19T09:33:46.065Z,6.80
2023-02-19T09:36:12.508Z,13.29
2023-02-19T09:38:38.907Z,9.41
2023-02-19T09:41:05.363Z,13.03
2023-02-19T09:43:31.873Z,9.36
2023-02-19T09:45:58.306Z,6.65
2023-02-19T09:48:24.768Z,6.87
2023-02-19T09:50:51.189Z,6.85
2023-02-19T09:53:17.613Z,7.37
2023-02-19T09:55:44.023Z,7.45
2023-02-19T09:58:10.587Z,7.22
2023-02-19T10:00:36.968Z,7.07
2023-02-19T10:03:03.424Z,6.93
2023-02-19T10:05:29.954Z,7.39
2023-02-19T10:07:56.526Z,7.44
2023-02-19T10:10:22.973Z,7.26
2023-02-19T10:12:49.435Z,7.67
2023-02-19T10:15:15.909Z,7.30
2023-02-19T10:17:42.332Z,7.60
2023-02-19T10:20:08.799Z,7.87
2023-02-19T10:22:35.258Z,7.71
2023-02-19T10:25:01.687Z,7.44
2023-02-19T10:27:28.117Z,7.36
2023-02-19T10:29:54.490Z,7.46
2023-02-19T10:32:21.861Z,7.32
2023-02-19T10:34:50.713Z,7.42
2023-02-19T10:37:17.286Z,7.57
2023-02-19T10:39:45.939Z,7.49
2023-02-19T10:42:15.493Z,7.42
2023-02-19T10:44:42.920Z,7.25
2023-02-19T10:47:09.293Z,7.60
2023-02-19T10:49:36.038Z,8.24
2023-02-19T10:52:02.512Z,10.31
2023-02-19T10:54:29.054Z,10.20
2023-02-19T10:56:55.446Z,9.04
2023-02-19T10:59:21.843Z,7.88
2023-02-19T11:01:48.241Z,7.94
2023-02-19T11:04:14.756Z,8.51
2023-02-19T11:06:41.235Z,8.83
2023-02-19T11:09:10.465Z,8.98
2023-02-19T11:11:36.899Z,8.75
2023-02-19T11:14:03.334Z,8.76
2023-02-19T11:16:29.738Z,8.84
2023-02-19T11:18:57.157Z,9.02
2023-02-19T11:21:23.841Z,8.79
2023-02-19T11:23:50.236Z,8.58
2023-02-19T11:26:16.640Z,8.90
2023-02-19T11:28:43.062Z,8.96
2023-02-19T11:31:10.332Z,9.16
2023-02-19T11:33:37.135Z,9.17
2023-02-19T11:36:03.498Z,8.95
2023-02-19T11:38:29.996Z,9.74
2023-02-19T11:41:04.084Z,9.59
2023-02-19T11:43:31.750Z,9.51
2023-02-19T11:45:59.004Z,9.35
2023-02-19T11:48:25.358Z,9.40
2023-02-19T11:50:51.736Z,9.89
2023-02-19T11:53:18.193Z,10.45
2023-02-19T11:55:45.401Z,11.15
2023-02-19T11:58:11.856Z,10.64
2023-02-19T12:00:38.273Z,10.32
2023-02-19T12:03:04.725Z,10.14
2023-02-19T12:05:31.137Z,9.83
2023-02-19T12:08:01.575Z,10.00
2023-02-19T12:10:28.644Z,9.63
2023-02-19T12:12:55.754Z,10.63
2023-02-19T12:15:33.015Z,11.48
2023-02-19T12:17:59.482Z,10.12
2023-02-19T12:20:25.921Z,9.80
2023-02-19T12:22:52.351Z,10.27
2023-02-19T12:25:18.841Z,10.23
2023-02-19T12:27:45.301Z,10.61
2023-02-19T12:30:11.779Z,10.76
2023-02-19T12:32:38.241Z,10.41
2023-02-19T12:35:04.692Z,10.93
2023-02-19T12:37:31.138Z,10.91
2023-02-19T12:39:57.577Z,10.60
2023-02-19T12:42:24.009Z,11.31
2023-02-19T12:44:50.490Z,10.98
2023-02-19T12:47:16.901Z,11.36
2023-02-19T12:49:43.388Z,10.94
2023-02-19T12:52:10.273Z,10.95
2023-02-19T12:54:36.730Z,11.49
2023-02-19T12:57:03.221Z,11.04
2023-02-19T12:59:29.701Z,10.99
2023-02-19T13:01:56.232Z,11.27
2023-02-19T13:04:22.660Z,11.41
2023-02-19T13:06:49.116Z,11.39
2023-02-19T13:09:15.599Z,11.22
2023-02-19T13:11:41.998Z,11.44
2023-02-19T13:14:08.385Z,11.21
2023-02-19T13:16:34.945Z,11.10
2023-02-19T13:19:01.403Z,10.68
2023-02-19T13:21:27.879Z,9.61
2023-02-19T13:23:54.336Z,9.68
2023-02-19T13:26:20.791Z,9.23
2023-02-19T13:28:47.530Z,8.22
2023-02-19T13:31:14.323Z,8.53
2023-02-19T13:33:42.497Z,10.74
2023-02-19T13:36:08.961Z,11.17
2023-02-19T13:38:35.387Z,11.09
2023-02-19T13:41:01.821Z,11.37
2023-02-19T13:43:28.255Z,11.15
2023-02-19T13:45:54.733Z,10.80
2023-02-19T13:48:21.359Z,10.04
2023-02-19T13:50:47.837Z,8.85
2023-02-19T13:53:14.318Z,9.17
2023-02-19T13:55:43.677Z,8.31
2023-02-19T13:58:10.122Z,7.20
2023-02-19T14:00:36.523Z,6.66
2023-02-19T14:03:03.000Z,6.06
2023-02-19T14:05:29.324Z,7.22
2023-02-19T14:07:55.751Z,8.00
2023-02-19T14:10:22.121Z,7.18
2023-02-19T14:12:51.456Z,6.57
2023-02-19T14:15:18.262Z,6.41
2023-02-19T14:17:44.814Z,6.75
2023-02-19T14:20:12.235Z,7.00
2023-02-19T14:22:38.628Z,6.88
2023-02-19T14:25:05.055Z,6.94
2023-02-19T14:27:31.544Z,6.84
2023-02-19T14:30:00.319Z,6.95
2023-02-19T14:32:27.269Z,10.13
2023-02-19T14:34:53.671Z,10.21
2023-02-19T14:37:20.058Z,8.57
2023-02-19T14:39:48.913Z,6.39
2023-02-19T14:42:18.131Z,5.48
2023-02-19T14:44:56.676Z,5.51
2023-02-19T14:47:23.110Z,4.81
2023-02-19T14:49:49.539Z,4.58
2023-02-19T14:52:15.926Z,5.90
2023-02-19T14:54:45.029Z,4.38
2023-02-19T14:57:11.499Z,3.60
2023-02-19T14:59:37.964Z,3.40
2023-02-19T15:02:04.405Z,3.28
2023-02-19T15:04:30.875Z,3.54
2023-02-19T15:06:57.347Z,2.79
2023-02-19T15:09:23.730Z,2.52
2023-02-19T15:11:50.125Z,2.51
2023-02-19T15:14:16.724Z,2.77
2023-02-19T15:16:43.158Z,3.14
2023-02-19T15:19:09.631Z,2.76
2023-02-19T15:21:35.969Z,4.25
2023-02-19T15:24:02.373Z,4.65
2023-02-19T15:26:29.026Z,5.06
2023-02-19T15:28:55.433Z,5.72
2023-02-19T15:31:21.889Z,3.48
2023-02-19T15:33:48.344Z,2.91
2023-02-19T15:36:14.800Z,4.41
2023-02-19T15:38:41.305Z,2.35
2023-02-19T15:41:07.798Z,1.82
2023-02-19T15:43:34.213Z,3.20
2023-02-19T15:46:00.578Z,3.79
2023-02-19T15:48:27.039Z,2.78
2023-02-19T15:50:55.673Z,2.46
2023-02-19T15:53:22.373Z,2.41
2023-02-19T15:55:48.905Z,2.14
2023-02-19T15:58:15.585Z,1.76
2023-02-19T16:00:42.046Z,1.66
2023-02-19T16:03:10.649Z,1.31
2023-02-19T16:05:37.107Z,1.32
2023-02-19T16:08:03.531Z,1.29
2023-02-19T16:10:29.957Z,1.74
2023-02-19T16:12:56.738Z,4.56
2023-02-19T16:15:23.387Z,4.81
2023-02-19T16:17:51.071Z,1.64
2023-02-19T16:20:18.213Z,1.64
2023-02-19T16:22:46.559Z,1.75
2023-02-19T16:25:12.972Z,1.61
2023-02-19T16:27:40.658Z,1.62
2023-02-19T16:30:07.203Z,1.83
2023-02-19T16:32:33.660Z,1.85
2023-02-19T16:35:00.097Z,2.19
2023-02-19T16:37:26.583Z,3.76
2023-02-19T16:39:53.045Z,2.92
2023-02-19T16:42:21.835Z,2.63
2023-02-19T16:44:48.260Z,2.46
2023-02-19T16:47:14.677Z,2.02
2023-02-19T16:49:49.102Z,2.35
2023-02-19T16:52:16.070Z,2.17
2023-02-19T16:54:42.496Z,2.20
2023-02-19T16:57:08.883Z,2.26
2023-02-19T16:59:35.303Z,2.59
2023-02-19T17:02:01.694Z,3.08
2023-02-19T17:04:28.141Z,2.06
2023-02-19T17:06:54.570Z,2.62
2023-02-19T17:09:20.975Z,2.10
2023-02-19T17:11:47.437Z,2.16
2023-02-19T17:14:13.925Z,3.31
2023-02-19T17:16:40.776Z,4.76
2023-02-19T17:19:07.282Z,6.61
2023-02-19T17:21:33.770Z,6.25
2023-02-19T17:24:00.300Z,5.54
2023-02-19T17:26:26.721Z,4.52
2023-02-19T17:28:53.116Z,4.36
2023-02-19T17:31:23.977Z,3.74
2023-02-19T17:33:50.597Z,3.11
2023-02-19T17:36:17.972Z,3.14
2023-02-19T17:38:44.613Z,5.14
2023-02-19T17:41:11.337Z,6.98
2023-02-19T17:43:37.921Z,5.04
2023-02-19T17:46:04.363Z,4.33
2023-02-19T17:48:30.827Z,3.43
2023-02-19T17:50:57.219Z,2.97
2023-02-19T17:53:23.621Z,3.02
2023-02-19T17:55:50.939Z,2.84
2023-02-19T17:58:17.377Z,2.37
2023-02-19T18:00:43.793Z,2.28
2023-02-19T18:03:10.183Z,4.21
2023-02-19T18:05:36.572Z,3.92
2023-02-19T18:08:02.933Z,3.92
2023-02-19T18:10:29.332Z,4.86
2023-02-19T18:12:55.730Z,7.17
2023-02-19T18:15:22.242Z,7.98
2023-02-19T18:17:48.747Z,7.47
2023-02-19T18:20:15.309Z,4.95
2023-02-19T18:22:41.658Z,4.18
2023-02-19T18:25:08.042Z,3.46
2023-02-19T18:27:34.450Z,3.17
2023-02-19T18:30:00.927Z,2.59
2023-02-19T18:32:27.330Z,2.45
2023-02-19T18:34:54.135Z,2.84
2023-02-19T18:37:20.532Z,4.63
2023-02-19T18:39:48.030Z,5.42
2023-02-19T18:42:20.232Z,5.04
2023-02-19T18:44:47.413Z,4.17
2023-02-19T18:47:15.991Z,3.59
2023-02-19T18:49:42.493Z,3.44
2023-02-19T18:52:11.856Z,3.41
2023-02-19T18:54:38.361Z,3.15
2023-02-19T18:57:04.813Z,2.45
2023-02-19T18:59:31.183Z,1.91
2023-02-19T19:01:57.544Z,2.01
2023-02-19T19:04:24.412Z,1.88
2023-02-19T19:06:53.599Z,2.75
2023-02-19T19:09:20.028Z,2.11
2023-02-19T19:11:46.495Z,1.46
2023-02-19T19:14:12.943Z,1.83
2023-02-19T19:16:39.325Z,1.60
2023-02-19T19:19:05.722Z,1.53
2023-02-19T19:21:32.144Z,1.70
2023-02-19T19:23:58.597Z,2.26
2023-02-19T19:26:25.109Z,2.88
2023-02-19T19:28:51.587Z,4.51
2023-02-19T19:31:18.228Z,6.66
2023-02-19T19:33:44.823Z,3.71
2023-02-19T19:36:11.306Z,2.74
2023-02-19T19:38:37.695Z,2.55
2023-02-19T19:41:04.094Z,3.16
2023-02-19T19:43:30.534Z,1.95
2023-02-19T19:45:57.056Z,1.58
2023-02-19T19:48:23.519Z,2.08
2023-02-19T19:50:50.089Z,1.91
2023-02-19T19:53:16.466Z,1.94
2023-02-19T19:55:42.954Z,2.05
2023-02-19T19:58:09.315Z,2.44
2023-02-19T20:00:35.674Z,4.87
2023-02-19T20:03:02.175Z,5.22
2023-02-19T20:05:28.633Z,6.22
2023-02-19T20:07:55.016Z,3.65
2023-02-19T20:10:21.554Z,5.57
2023-02-19T20:12:47.952Z,4.14
2023-02-19T20:15:14.713Z,3.35
2023-02-19T20:17:41.094Z,2.35
2023-02-19T20:20:16.945Z,2.58
2023-02-19T20:22:43.733Z,2.52
2023-02-19T20:25:10.271Z,5.21
2023-02-19T20:27:36.663Z,7.64
2023-02-19T20:30:03.128Z,3.45
2023-02-19T20:32:29.800Z,2.95
2023-02-19T20:34:56.272Z,2.72
2023-02-19T20:37:22.705Z,2.81
2023-02-19T20:39:49.273Z,2.79
2023-02-19T20:42:16.553Z,2.68
2023-02-19T20:44:43.368Z,2.65
2023-02-19T20:47:09.797Z,2.20
2023-02-19T20:49:36.255Z,1.98
2023-02-19T20:52:03.966Z,2.56
2023-02-19T20:54:30.348Z,2.04
2023-02-19T20:56:58.102Z,1.78
2023-02-19T20:59:26.099Z,1.73
2023-02-19T21:01:52.604Z,1.66
2023-02-19T21:04:19.304Z,2.29
2023-02-19T21:06:46.729Z,2.67
2023-02-19T21:09:13.736Z,2.30
2023-02-19T21:11:42.049Z,2.49
2023-02-19T21:14:08.955Z,2.55
2023-02-19T21:16:43.180Z,2.54
2023-02-19T21:19:11.878Z,2.26
2023-02-19T21:21:38.406Z,2.91
2023-02-19T21:24:04.905Z,2.53
2023-02-19T21:26:38.866Z,3.09
2023-02-19T21:29:10.289Z,2.79
2023-02-19T21:31:36.703Z,4.87
2023-02-19T21:34:09.830Z,7.45
2023-02-19T21:36:36.212Z,3.49
2023-02-19T21:39:02.584Z,3.07
2023-02-19T21:41:29.021Z,4.16
2023-02-19T21:43:59.505Z,4.89
2023-02-19T21:46:25.993Z,5.55
2023-02-19T21:48:55.652Z,4.62
2023-02-19T21:51:23.811Z,4.40
2023-02-19T21:53:50.322Z,3.29
2023-02-19T21:56:16.786Z,3.26
2023-02-19T21:58:47.010Z,2.93
2023-02-19T22:01:16.216Z,3.21
2023-02-19T22:06:28.632Z,4.96
2023-02-19T22:08:55.320Z,4.65
2023-02-19T22:14:13.920Z,3.65
2023-02-19T22:16:40.630Z,2.45
2023-02-19T22:19:09.564Z,2.49
2023-02-19T22:21:35.947Z,4.26
2023-02-19T22:24:02.406Z,3.61
2023-02-19T22:29:19.872Z,6.11
2023-02-19T22:31:49.813Z,4.39
2023-02-19T22:34:16.284Z,4.09
2023-02-19T22:36:48.826Z,3.62
2023-02-19T22:39:15.181Z,3.44
2023-02-19T22:44:24.805Z,2.68
2023-02-19T22:47:00.139Z,2.04
2023-02-19T22:54:58.953Z,1.73
2023-02-19T22:57:25.464Z,1.80
2023-02-19T23:00:01.027Z,1.69
2023-02-19T23:02:27.525Z,1.79
2023-02-19T23:04:56.794Z,1.47
2023-02-19T23:07:24.534Z,1.72
2023-02-19T23:09:55.024Z,1.56
2023-02-19T23:15:15.401Z,1.75
2023-02-19T23:17:42.903Z,1.78
2023-02-19T23:20:12.079Z,2.18
2023-02-19T23:22:41.082Z,2.67
2023-02-19T23:25:07.795Z,2.41
2023-02-19T23:27:34.282Z,2.86
2023-02-19T23:30:06.682Z,2.75
2023-02-19T23:32:33.093Z,2.89
2023-02-19T23:34:59.546Z,2.75
2023-02-19T23:37:26.397Z,2.75
2023-02-19T23:39:53.508Z,2.62
2023-02-19T23:45:15.174Z,2.77
2023-02-19T23:47:43.318Z,2.77
2023-02-19T23:50:09.749Z,2.46
2023-02-19T23:52:38.196Z,2.55
2023-02-19T23:55:04.617Z,3.35
2023-02-19T23:57:31.123Z,3.26
2023-02-19T23:59:57.558Z,3.67
